Terminal Aerodrome Forecast
Issued by NWS

Home | Current Version | Previous Version | Text Only | Print | Product List | Glossary On
Versions: 1 2 3 4 5 6 7 8 9 10 11 12 13 14 15
000
FTUS45 KSLC 201120
TAFEVW
TAF
KEVW 201120Z 2012/2112 22007KT P6SM FEW060 BKN120
     FM201800 28014G22KT P6SM SCT060 SCT120
     FM210300 11007KT P6SM SKC=

USA.gov is the U.S. government's official web portal to all federal, state and local government web resources and services.